Time;durP1;ratioP1;P1;durP2;ratioP2;P2;SDS_P1;SDS_P2;PMS_P1;PMS_P2;Temp;Humidity;BMP_temperature;BMP_pressure;BME280_temperature;BME280_humidity;BME280_pressure;Samples;Min_cycle;Max_cycle;Signal;HPM_P1;HPM_P2
2022/08/03 00:01:39;;;;;;;;;5.75;5.75;;;;;27.49;46.81;100908.28;4881411;29;45396;-51
2022/08/03 00:04:05;;;;;;;;;9.20;9.20;;;;;27.64;47.01;100931.59;4881441;29;45400;-53
2022/08/03 00:06:30;;;;;;;;;4.25;4.25;;;;;27.62;47.18;100933.91;4881667;29;45312;-51
2022/08/03 00:08:56;;;;;;;;;6.50;4.50;;;;;27.67;46.40;100931.78;4881643;29;45563;-51
2022/08/03 00:11:21;;;;;;;;;6.50;5.25;;;;;27.66;46.65;100934.91;4848865;29;46439;-50
2022/08/03 00:13:47;;;;;;;;;4.00;4.00;;;;;27.50;46.75;100915.59;4881119;29;45192;-53
2022/08/03 00:16:12;;;;;;;;;7.00;6.00;;;;;27.56;46.98;100934.03;4846351;28;45592;-51
2022/08/03 00:18:38;;;;;;;;;6.50;6.50;;;;;27.52;46.78;100930.16;4862831;29;45293;-55
2022/08/03 00:21:04;;;;;;;;;4.00;4.00;;;;;27.40;47.38;100938.38;4861342;29;46390;-49
2022/08/03 00:23:29;;;;;;;;;8.00;7.50;;;;;27.34;47.30;100941.34;4862120;29;45474;-51
2022/08/03 00:25:55;;;;;;;;;6.00;5.00;;;;;27.10;46.70;100901.44;4862495;29;45322;-50
2022/08/03 00:28:21;;;;;;;;;2.50;2.50;;;;;27.32;46.28;100938.00;4862856;29;45670;-50
2022/08/03 00:30:46;;;;;;;;;4.50;4.50;;;;;27.33;46.12;100938.84;4861969;29;45701;-51
2022/08/03 00:33:11;;;;;;;;;2.25;2.25;;;;;27.22;45.91;100921.41;4862188;29;45378;-53
2022/08/03 00:35:37;;;;;;;;;4.00;4.00;;;;;27.13;46.05;100924.16;4862296;29;45409;-54
2022/08/03 00:38:03;;;;;;;;;4.00;4.00;;;;;27.15;45.91;100924.66;4862593;29;45283;-53
2022/08/03 00:40:28;;;;;;;;;2.00;2.00;;;;;26.89;46.26;100911.19;4845351;29;46317;-51
2022/08/03 00:42:56;;;;;;;;;3.00;3.00;;;;;26.85;47.08;100937.47;4862094;29;45352;-50
2022/08/03 00:45:26;;;;;;;;;3.20;3.20;;;;;26.81;46.88;100940.09;4861038;29;45388;-54
2022/08/03 00:47:52;;;;;;;;;2.80;2.80;;;;;26.83;47.10;100920.91;4862481;29;45476;-51
2022/08/03 00:50:17;;;;;;;;;6.25;6.25;;;;;26.95;46.85;100931.66;4869068;29;45757;-53
2022/08/03 00:52:43;;;;;;;;;9.50;9.50;;;;;27.00;46.91;100922.22;4848486;29;45629;-53
2022/08/03 00:55:09;;;;;;;;;6.00;4.00;;;;;27.06;46.99;100923.78;4880604;29;45369;-54
2022/08/03 00:57:35;;;;;;;;;5.40;5.20;;;;;26.92;46.85;100904.97;4881253;29;45393;-49
2022/08/03 01:00:00;;;;;;;;;3.00;1.50;;;;;26.87;47.07;100921.09;4863339;29;45721;-51
2022/08/03 01:02:27;;;;;;;;;4.75;4.75;;;;;26.74;47.37;100929.28;4880607;29;45335;-51
2022/08/03 01:04:52;;;;;;;;;1.00;1.00;;;;;26.59;47.58;100912.75;4880937;29;45626;-55
2022/08/03 01:07:28;;;;;;;;;2.75;2.00;;;;;26.62;47.54;100915.75;4881347;29;45355;-55
2022/08/03 01:10:00;;;;;;;;;2.00;2.00;;;;;26.72;47.36;100920.31;4863849;29;45401;-52
2022/08/03 01:12:38;;;;;;;;;2.40;2.40;;;;;26.55;47.05;100890.03;4880112;29;45443;-54
2022/08/03 01:15:09;;;;;;;;;3.40;2.20;;;;;26.81;47.18;100914.78;4863536;29;45406;-54
2022/08/03 01:18:01;;;;;;;;;3.80;2.20;;;;;26.73;46.89;100913.53;4880663;29;45447;-54
2022/08/03 01:20:30;;;;;;;;;2.20;2.20;;;;;26.52;47.56;100894.31;4876153;29;46535;-55
2022/08/03 01:23:05;;;;;;;;;1.60;1.60;;;;;26.57;47.24;100893.38;4863547;29;45359;-54
2022/08/03 01:26:08;;;;;;;;;3.20;2.20;;;;;26.72;47.00;100909.06;4863349;29;45245;-55
2022/08/03 01:28:57;;;;;;;;;0.40;0.40;;;;;26.69;47.06;100903.25;4863826;29;45453;-51
2022/08/03 01:31:26;;;;;;;;;4.00;3.00;;;;;26.55;47.36;100897.63;4847435;29;48534;-49
2022/08/03 01:33:58;;;;;;;;;4.60;2.00;;;;;26.45;47.66;100893.94;4863265;29;45446;-52
2022/08/03 01:36:25;;;;;;;;;1.80;1.80;;;;;26.51;47.05;100894.63;4863592;29;45327;-53
2022/08/03 01:38:54;;;;;;;;;3.00;2.40;;;;;26.37;47.38;100892.69;4878769;29;45345;-54
2022/08/03 01:41:21;;;;;;;;;1.80;1.20;;;;;26.32;47.78;100889.16;4847499;29;45745;-55
2022/08/03 01:43:48;;;;;;;;;2.20;1.40;;;;;26.21;47.54;100886.53;4847590;29;45393;-53
2022/08/03 01:46:14;;;;;;;;;2.40;2.00;;;;;26.11;47.85;100889.59;4863493;29;45407;-54
2022/08/03 01:48:41;;;;;;;;;2.00;2.00;;;;;26.01;48.09;100867.31;4863108;29;45495;-52
2022/08/03 01:51:07;;;;;;;;;2.00;2.00;;;;;26.14;48.02;100893.75;4862769;29;45721;-52
2022/08/03 01:53:33;;;;;;;;;1.00;1.00;;;;;26.15;48.21;100895.44;4847820;29;45420;-52
2022/08/03 01:55:58;;;;;;;;;1.25;0.75;;;;;26.13;47.79;100881.66;4863036;29;45659;-55
2022/08/03 01:58:24;;;;;;;;;2.00;2.00;;;;;26.07;48.10;100885.75;4863326;29;45514;-55
2022/08/03 02:00:49;;;;;;;;;1.75;1.75;;;;;26.02;48.09;100892.31;4847229;29;45440;-54
2022/08/03 02:03:15;;;;;;;;;1.50;1.50;;;;;26.07;47.71;100892.22;4849166;29;45856;-53
2022/08/03 02:05:40;;;;;;;;;3.00;1.50;;;;;26.03;47.96;100877.09;4879773;29;45225;-56
2022/08/03 02:08:06;;;;;;;;;1.00;1.00;;;;;26.18;47.50;100895.63;4863076;29;45501;-54
2022/08/03 02:10:32;;;;;;;;;2.60;1.00;;;;;26.08;47.30;100868.56;4862764;29;46669;-55
2022/08/03 02:12:58;;;;;;;;;1.75;1.75;;;;;26.20;47.12;100882.06;4866061;29;45384;-52
2022/08/03 02:15:23;;;;;;;;;1.00;1.00;;;;;26.18;46.88;100875.09;4850567;29;45372;-51
2022/08/03 02:17:49;;;;;;;;;2.00;2.00;;;;;26.09;47.08;100875.84;4866419;29;45488;-53
2022/08/03 02:20:14;;;;;;;;;1.00;1.00;;;;;26.02;47.30;100861.38;4882916;29;46117;-52
2022/08/03 02:22:40;;;;;;;;;1.75;1.75;;;;;26.09;47.02;100869.41;4882960;29;45386;-51
2022/08/03 02:25:08;;;;;;;;;2.00;2.00;;;;;25.99;47.22;100873.28;4865914;29;45933;-56
2022/08/03 02:27:33;;;;;;;;;1.60;0.20;;;;;26.05;47.34;100863.56;4883317;29;45315;-51
2022/08/03 02:30:06;;;;;;;;;2.25;2.25;;;;;26.06;47.20;100862.44;4865866;29;45745;-52
2022/08/03 02:32:36;;;;;;;;;5.00;4.80;;;;;26.10;47.26;100863.44;4850714;29;45473;-51
2022/08/03 02:35:03;;;;;;;;;2.20;1.00;;;;;26.02;47.24;100855.75;4850644;29;45396;-52
2022/08/03 02:37:33;;;;;;;;;5.20;2.80;;;;;25.91;47.49;100841.09;4866067;29;45634;-50
2022/08/03 02:40:01;;;;;;;;;2.80;2.80;;;;;25.94;47.83;100848.88;4865720;29;45744;-54
2022/08/03 02:42:26;;;;;;;;;2.60;2.60;;;;;26.04;47.91;100870.31;4882410;29;45245;-52
2022/08/03 02:44:52;;;;;;;;;2.00;1.00;;;;;26.11;47.60;100861.47;4850790;29;45255;-54
2022/08/03 02:47:19;;;;;;;;;2.75;2.75;;;;;26.21;47.55;100874.47;4850440;29;45455;-53
2022/08/03 02:49:45;;;;;;;;;2.00;2.00;;;;;25.99;47.77;100836.72;4850530;29;46101;-51
2022/08/03 02:52:10;;;;;;;;;2.25;2.25;;;;;26.14;47.62;100865.63;4850010;29;45472;-50
2022/08/03 02:54:36;;;;;;;;;3.00;3.00;;;;;25.95;48.23;100836.53;4882787;29;45461;-52
2022/08/03 02:57:01;;;;;;;;;1.75;1.75;;;;;25.94;47.96;100854.50;4850580;29;45461;-53
2022/08/03 02:59:28;;;;;;;;;1.75;1.75;;;;;25.99;48.16;100870.47;4865473;29;45942;-54
2022/08/03 03:01:54;;;;;;;;;2.20;1.80;;;;;25.88;47.74;100840.91;4850495;29;45389;-51
2022/08/03 03:04:19;;;;;;;;;2.00;2.00;;;;;25.88;47.54;100832.47;4850221;29;45332;-50
2022/08/03 03:06:45;;;;;;;;;3.25;1.00;;;;;25.97;47.38;100856.72;4865570;29;45262;-50
2022/08/03 03:09:11;;;;;;;;;2.00;2.00;;;;;25.77;47.56;100827.03;4865235;29;45832;-50
2022/08/03 03:11:37;;;;;;;;;3.25;3.25;;;;;25.79;47.48;100823.94;4865103;29;45474;-52
2022/08/03 03:14:02;;;;;;;;;1.60;1.60;;;;;25.87;47.94;100858.91;4865534;29;45444;-54
2022/08/03 03:16:29;;;;;;;;;4.50;2.00;;;;;25.74;47.94;100858.59;4865585;29;45255;-51
2022/08/03 03:18:54;;;;;;;;;2.00;2.00;;;;;25.78;48.00;100848.38;4865161;29;46540;-51
2022/08/03 03:21:19;;;;;;;;;2.00;2.00;;;;;25.74;47.92;100846.50;4881775;29;45383;-54
2022/08/03 03:23:45;;;;;;;;;1.50;1.50;;;;;25.60;48.28;100846.53;4849087;29;45428;-52
2022/08/03 03:26:12;;;;;;;;;1.50;1.50;;;;;25.58;47.73;100844.88;4850083;29;45393;-53
2022/08/03 03:28:37;;;;;;;;;2.20;1.00;;;;;25.65;48.10;100843.59;4864928;29;45472;-50
2022/08/03 03:31:04;;;;;;;;;2.00;1.00;;;;;25.70;48.07;100840.69;4864926;29;45555;-54
2022/08/03 03:33:29;;;;;;;;;4.40;3.60;;;;;25.68;48.06;100837.38;4865352;29;45452;-53
2022/08/03 03:35:55;;;;;;;;;1.50;0.75;;;;;25.64;48.05;100851.22;4882041;29;45420;-51
2022/08/03 03:38:20;;;;;;;;;2.00;1.00;;;;;25.66;47.80;100839.66;4864621;29;45843;-50
2022/08/03 03:40:46;;;;;;;;;2.50;2.50;;;;;25.65;48.00;100843.59;4881492;29;45343;-52
2022/08/03 03:43:11;;;;;;;;;4.25;2.25;;;;;25.66;48.50;100839.66;4849208;29;45240;-53
2022/08/03 03:45:37;;;;;;;;;1.25;1.25;;;;;25.52;48.48;100829.25;4880525;29;45339;-55
2022/08/03 03:48:03;;;;;;;;;0.75;0.75;;;;;25.50;48.53;100837.13;4864256;29;46568;-52
2022/08/03 03:50:29;;;;;;;;;2.00;2.00;;;;;25.60;48.29;100841.72;4864577;29;45437;-54
2022/08/03 03:52:55;;;;;;;;;5.80;3.80;;;;;25.75;48.35;100842.56;4881363;29;45467;-49
2022/08/03 03:55:20;;;;;;;;;1.50;1.00;;;;;25.82;48.15;100835.38;4881758;29;45562;-52
2022/08/03 03:57:46;;;;;;;;;2.25;0.50;;;;;25.91;48.13;100841.09;4834219;29;46741;-50
2022/08/03 04:00:15;;;;;;;;;1.50;1.00;;;;;25.70;47.92;100818.19;4881369;29;45347;-51
2022/08/03 04:02:41;;;;;;;;;2.00;2.00;;;;;25.76;47.97;100842.25;4881069;29;45592;-52
2022/08/03 04:11:14;;;;;;;;;1.00;1.00;;;;;25.58;48.32;100821.56;4836596;29;45251;-54
2022/08/03 04:13:44;;;;;;;;;4.40;1.00;;;;;25.64;48.12;100823.09;4862168;29;45416;-52
2022/08/03 04:16:11;;;;;;;;;1.00;1.00;;;;;25.78;48.37;100847.56;4846552;29;45369;-54
2022/08/03 04:18:37;;;;;;;;;2.00;1.60;;;;;25.74;48.36;100849.31;4845675;29;46468;-51
2022/08/03 04:21:03;;;;;;;;;2.50;2.50;;;;;25.56;48.37;100823.84;4860967;29;45370;-55
2022/08/03 04:23:30;;;;;;;;;2.60;2.60;;;;;25.75;48.46;100846.22;4845614;29;45515;-54
2022/08/03 04:25:55;;;;;;;;;3.00;2.20;;;;;25.74;48.04;100833.31;4862571;29;45226;-51
2022/08/03 04:28:21;;;;;;;;;2.00;2.00;;;;;25.71;48.33;100834.75;4860607;29;45406;-51
2022/08/03 04:30:47;;;;;;;;;2.00;2.00;;;;;25.65;48.54;100840.78;4860994;29;45803;-56
2022/08/03 04:33:13;;;;;;;;;3.60;3.00;;;;;25.63;48.64;100843.09;4845648;29;45423;-53
2022/08/03 04:35:39;;;;;;;;;1.80;1.60;;;;;25.60;48.76;100832.47;4844917;29;45431;-52
2022/08/03 04:38:05;;;;;;;;;3.00;3.00;;;;;25.47;48.88;100820.06;4845155;29;46052;-50
2022/08/03 04:40:34;;;;;;;;;2.40;2.40;;;;;25.41;49.31;100822.97;4845329;29;45490;-52
2022/08/03 04:43:00;;;;;;;;;3.00;1.80;;;;;25.40;49.32;100826.09;4861750;29;45333;-54
2022/08/03 04:45:29;;;;;;;;;2.75;2.25;;;;;25.49;48.88;100843.88;4861042;29;45335;-55
2022/08/03 04:47:54;;;;;;;;;2.40;1.60;;;;;25.54;48.78;100841.00;4845079;29;46952;-55
2022/08/03 04:50:20;;;;;;;;;2.25;2.00;;;;;25.59;48.93;100845.69;4844979;29;45451;-53
2022/08/03 04:52:46;;;;;;;;;2.75;2.75;;;;;25.61;49.00;100846.19;4845322;29;45858;-53
2022/08/03 04:55:11;;;;;;;;;2.50;2.50;;;;;25.54;48.69;100820.50;4862340;29;45297;-52
2022/08/03 04:57:37;;;;;;;;;5.00;1.25;;;;;25.52;48.62;100829.25;4837084;29;46742;-56
2022/08/03 05:00:03;;;;;;;;;1.25;1.25;;;;;25.67;48.48;100844.13;4861691;29;45318;-55
2022/08/03 05:02:29;;;;;;;;;3.20;3.20;;;;;25.75;47.94;100843.41;4861655;29;45383;-56
2022/08/03 05:04:55;;;;;;;;;2.00;2.00;;;;;25.83;47.97;100847.47;4862048;29;45425;-54
2022/08/03 05:07:20;;;;;;;;;1.00;1.00;;;;;25.73;48.39;100848.50;4861415;29;46517;-52
2022/08/03 05:09:46;;;;;;;;;2.00;2.00;;;;;25.74;48.55;100849.31;4873260;29;45838;-52
2022/08/03 05:12:11;;;;;;;;;4.00;2.50;;;;;25.77;48.75;100849.53;4863936;29;45450;-51
2022/08/03 05:14:37;;;;;;;;;2.50;2.50;;;;;25.79;48.75;100852.88;4863958;29;45321;-53
2022/08/03 05:17:07;;;;;;;;;2.00;2.00;;;;;25.87;48.32;100856.91;4880077;29;45803;-54
2022/08/03 05:19:32;;;;;;;;;2.00;2.00;;;;;25.82;48.35;100849.44;4863740;29;45414;-53
2022/08/03 05:21:58;;;;;;;;;2.00;2.00;;;;;25.84;48.23;100847.13;4880649;29;45862;-55
2022/08/03 05:24:23;;;;;;;;;1.75;1.75;;;;;25.94;48.12;100856.50;4880685;29;45379;-50
2022/08/03 05:26:49;;;;;;;;;2.50;2.50;;;;;25.96;47.78;100848.56;4880448;29;46807;-54
2022/08/03 05:29:14;;;;;;;;;2.00;2.00;;;;;26.06;47.74;100856.81;4880327;29;45706;-54
2022/08/03 05:31:39;;;;;;;;;4.00;3.00;;;;;26.06;47.79;100854.00;4863662;29;45422;-52
2022/08/03 05:34:05;;;;;;;;;2.75;2.00;;;;;26.07;48.01;100850.03;4880378;29;45390;-53
2022/08/03 05:36:30;;;;;;;;;3.00;2.00;;;;;25.96;48.05;100831.72;4863322;29;46779;-52
2022/08/03 05:38:56;;;;;;;;;3.00;3.00;;;;;26.08;48.01;100854.50;4880155;29;45291;-55
2022/08/03 05:41:22;;;;;;;;;6.50;4.50;;;;;25.91;48.28;100835.47;4880354;29;45379;-51
2022/08/03 05:43:47;;;;;;;;;2.00;2.00;;;;;25.91;47.97;100831.81;4880196;29;45539;-51
2022/08/03 05:46:13;;;;;;;;;6.00;3.25;;;;;26.02;47.95;100858.56;4881992;29;46517;-52
2022/08/03 05:48:38;;;;;;;;;4.25;3.00;;;;;25.84;48.50;100837.88;4883192;29;45340;-50
2022/08/03 05:51:06;;;;;;;;;3.00;3.00;;;;;26.03;48.18;100857.41;4883656;29;45239;-57
2022/08/03 05:53:34;;;;;;;;;5.00;4.60;;;;;26.01;48.03;100854.09;4883605;29;45331;-53
2022/08/03 05:56:00;;;;;;;;;5.60;4.20;;;;;26.05;48.45;100857.09;4883043;29;46700;-54
2022/08/03 05:58:26;;;;;;;;;5.25;5.25;;;;;26.01;48.70;100858.88;4883350;29;45397;-53
2022/08/03 06:00:51;;;;;;;;;3.75;3.75;;;;;25.91;48.24;100843.06;4883476;29;45391;-54
2022/08/03 06:03:17;;;;;;;;;4.00;3.00;;;;;26.04;48.21;100852.63;4877214;28;45309;-54
2022/08/03 06:05:42;;;;;;;;;4.25;2.50;;;;;26.05;48.49;100862.72;4865658;29;46597;-51
2022/08/03 06:08:07;;;;;;;;;2.50;2.25;;;;;26.14;48.25;100869.28;4883445;29;45690;-56
2022/08/03 06:10:33;;;;;;;;;2.00;2.00;;;;;26.17;47.74;100873.44;4866264;29;45397;-50
2022/08/03 06:12:58;;;;;;;;;3.25;3.25;;;;;26.20;47.77;100873.63;4883269;29;45399;-52
2022/08/03 06:15:24;;;;;;;;;3.50;3.50;;;;;26.22;47.74;100865.75;4882813;29;46469;-54
2022/08/03 06:17:50;;;;;;;;;3.00;3.00;;;;;26.14;47.70;100852.41;4883342;29;45363;-54
2022/08/03 06:20:19;;;;;;;;;3.75;3.75;;;;;26.28;47.57;100869.28;4851331;29;45429;-56
2022/08/03 06:22:45;;;;;;;;;3.40;3.40;;;;;26.22;47.67;100867.72;4866164;29;45599;-57
2022/08/03 06:25:10;;;;;;;;;4.60;3.00;;;;;26.26;47.40;100868.78;4866271;29;45524;-50
2022/08/03 06:27:38;;;;;;;;;4.75;4.25;;;;;26.28;47.48;100866.47;4882774;29;45450;-53
2022/08/03 06:30:09;;;;;;;;;3.20;2.40;;;;;26.22;47.34;100850.84;4882581;29;45353;-52
2022/08/03 06:32:37;;;;;;;;;5.00;3.00;;;;;26.33;47.55;100859.88;4883155;29;45399;-53
2022/08/03 06:35:04;;;;;;;;;5.20;4.60;;;;;26.27;47.32;100876.06;4882320;29;46567;-56
2022/08/03 06:37:30;;;;;;;;;4.20;4.00;;;;;26.27;47.47;100881.69;4882931;29;45414;-54
2022/08/03 06:39:56;;;;;;;;;4.50;4.50;;;;;26.31;47.28;100870.63;4865697;29;45494;-55
2022/08/03 06:42:21;;;;;;;;;5.50;5.00;;;;;26.30;47.28;100868.97;4882999;29;45462;-54
2022/08/03 06:44:47;;;;;;;;;3.50;3.00;;;;;26.34;47.37;100876.47;4882503;29;45642;-55
2022/08/03 06:47:12;;;;;;;;;2.75;2.75;;;;;26.23;46.95;100852.50;4882770;29;45423;-51
2022/08/03 06:49:39;;;;;;;;;3.75;3.00;;;;;26.36;47.06;100871.34;4882452;29;45427;-57
2022/08/03 06:52:05;;;;;;;;;3.80;3.80;;;;;26.19;47.01;100852.28;4882900;29;45367;-55
2022/08/03 06:54:30;;;;;;;;;5.75;4.50;;;;;26.15;47.40;100861.69;4882436;29;46846;-56
2022/08/03 06:56:56;;;;;;;;;5.50;5.50;;;;;26.31;47.33;100882.69;4881975;29;45241;-52
2022/08/03 06:59:21;;;;;;;;;2.75;2.75;;;;;26.28;47.37;100872.09;4882270;29;45298;-53
2022/08/03 07:01:47;;;;;;;;;4.25;4.25;;;;;26.30;46.95;100872.59;4882595;29;45544;-50
2022/08/03 07:04:12;;;;;;;;;4.75;4.75;;;;;26.23;47.10;100863.75;4882096;29;46613;-52
2022/08/03 07:06:38;;;;;;;;;5.75;4.00;;;;;26.40;46.98;100874.34;4882420;29;45464;-54
2022/08/03 07:09:03;;;;;;;;;5.25;4.25;;;;;26.45;46.96;100876.19;4878238;28;45423;-55
2022/08/03 07:11:29;;;;;;;;;5.75;5.00;;;;;26.46;47.11;100875.91;4860598;29;45712;-51
2022/08/03 07:13:55;;;;;;;;;5.75;4.50;;;;;26.38;47.10;100859.78;4862169;29;46533;-51
2022/08/03 07:16:21;;;;;;;;;15.00;13.60;;;;;26.52;46.82;100880.25;4863269;29;45329;-53
2022/08/03 07:18:46;;;;;;;;;4.50;4.50;;;;;26.25;47.09;100851.06;4863657;29;45341;-56
2022/08/03 07:21:11;;;;;;;;;5.00;5.00;;;;;26.47;47.14;100873.94;4863803;29;45299;-53
2022/08/03 07:23:37;;;;;;;;;4.50;4.25;;;;;26.46;46.96;100869.44;4863197;29;46393;-51
2022/08/03 07:26:03;;;;;;;;;3.00;2.00;;;;;26.51;47.02;100878.59;4862119;29;45361;-51
2022/08/03 07:28:28;;;;;;;;;4.75;4.75;;;;;26.53;46.76;100878.28;4814044;29;45500;-53
2022/08/03 07:30:58;;;;;;;;;5.00;5.00;;;;;26.59;47.00;100876.16;4862985;29;45615;-55
2022/08/03 07:33:23;;;;;;;;;4.60;4.00;;;;;26.70;47.34;100871.13;4831000;29;47025;-56
2022/08/03 07:35:49;;;;;;;;;8.50;5.75;;;;;26.72;46.98;100871.66;4863466;29;45289;-57
2022/08/03 07:38:15;;;;;;;;;5.25;5.25;;;;;26.79;46.49;100869.22;4863470;29;45909;-59
2022/08/03 07:40:40;;;;;;;;;4.50;4.50;;;;;26.81;46.39;100872.53;4862961;29;45653;-57
2022/08/03 07:43:05;;;;;;;;;5.25;4.00;;;;;26.85;46.36;100867.09;4863011;29;45764;-55
2022/08/03 07:45:31;;;;;;;;;3.50;3.50;;;;;26.79;46.04;100847.50;4863053;29;45570;-58
2022/08/03 07:47:57;;;;;;;;;4.00;4.00;;;;;26.98;45.79;100862.56;4863408;29;45379;-59
2022/08/03 07:50:23;;;;;;;;;4.60;3.40;;;;;26.93;45.87;100852.28;4846328;29;45784;-57
2022/08/03 07:52:50;;;;;;;;;4.00;3.00;;;;;27.11;45.60;100869.28;4864743;29;45467;-60
2022/08/03 07:55:16;;;;;;;;;3.00;3.00;;;;;27.23;45.71;100877.13;4864614;29;45357;-58
2022/08/03 07:57:42;;;;;;;;;4.80;4.80;;;;;27.29;45.72;100875.84;4868978;29;45563;-58
2022/08/03 08:00:13;;;;;;;;;4.75;4.00;;;;;27.36;45.37;100870.56;4880270;29;45595;-53
2022/08/03 08:02:39;;;;;;;;;10.20;5.80;;;;;27.31;45.36;100857.47;4862828;29;45452;-56
2022/08/03 08:05:05;;;;;;;;;7.00;6.20;;;;;27.45;44.92;100874.28;4864384;29;45562;-60
2022/08/03 08:07:30;;;;;;;;;6.00;4.75;;;;;27.53;44.92;100875.47;4873075;29;45452;-58
2022/08/03 08:09:56;;;;;;;;;9.00;5.00;;;;;27.58;44.83;100878.19;4860286;29;45548;-58
2022/08/03 08:12:21;;;;;;;;;5.50;4.25;;;;;27.61;44.73;100871.06;4837494;28;45593;-58
2022/08/03 08:14:47;;;;;;;;;6.00;6.00;;;;;27.68;44.26;100871.41;4868823;29;45384;-58
2022/08/03 08:17:13;;;;;;;;;5.50;5.50;;;;;27.75;44.80;100876.59;4881206;29;45375;-58
2022/08/03 08:19:38;;;;;;;;;5.00;3.75;;;;;27.80;43.90;100876.41;4881261;29;45349;-61
2022/08/03 08:22:05;;;;;;;;;6.25;4.50;;;;;27.80;43.57;100867.97;4881413;29;45889;-60
2022/08/03 08:24:32;;;;;;;;;4.00;4.00;;;;;27.83;43.55;100864.50;4864378;29;45457;-61
2022/08/03 08:26:58;;;;;;;;;5.60;5.60;;;;;27.87;42.42;100870.31;4879586;29;45573;-58
2022/08/03 08:29:24;;;;;;;;;6.40;3.80;;;;;27.80;42.94;100850.22;4881201;29;45345;-59
2022/08/03 08:31:49;;;;;;;;;5.75;4.25;;;;;28.02;42.54;100866.22;4881103;29;46711;-55
2022/08/03 08:34:15;;;;;;;;;3.25;3.25;;;;;28.05;41.98;100861.91;4881010;29;45777;-60
2022/08/03 08:36:41;;;;;;;;;5.00;5.00;;;;;28.08;42.04;100864.06;4880983;29;45276;-60
2022/08/03 08:39:06;;;;;;;;;4.00;4.00;;;;;28.11;42.05;100861.41;4879782;29;45237;-56
2022/08/03 08:41:33;;;;;;;;;5.00;4.00;;;;;28.18;41.38;100862.91;4880668;29;45994;-58
2022/08/03 08:43:59;;;;;;;;;3.60;3.60;;;;;28.06;41.64;100833.34;4864368;29;45250;-56
2022/08/03 08:46:25;;;;;;;;;4.20;2.40;;;;;28.24;41.74;100854.00;4880637;29;45289;-59
2022/08/03 08:48:51;;;;;;;;;4.00;4.00;;;;;28.21;41.07;100842.50;4864407;29;45612;-60
2022/08/03 08:51:19;;;;;;;;;5.80;5.00;;;;;28.38;40.58;100859.47;4861999;29;46004;-60
2022/08/03 08:53:46;;;;;;;;;3.80;2.60;;;;;28.41;40.75;100853.19;4880636;29;45362;-58
2022/08/03 08:56:16;;;;;;;;;6.20;4.00;;;;;28.49;40.44;100851.50;4863182;29;45343;-59
2022/08/03 08:58:46;;;;;;;;;4.80;3.20;;;;;28.44;40.13;100837.56;4848025;29;45559;-59
2022/08/03 09:01:11;;;;;;;;;5.00;5.00;;;;;28.66;40.22;100849.84;4858821;29;46483;-53
2022/08/03 09:03:37;;;;;;;;;4.00;4.00;;;;;28.68;39.78;100842.72;4875531;29;45342;-55
2022/08/03 09:06:02;;;;;;;;;3.00;3.00;;;;;28.61;40.02;100821.78;4854069;29;45375;-57
2022/08/03 09:08:29;;;;;;;;;5.25;3.50;;;;;28.85;40.09;100845.84;4878437;29;45673;-60
2022/08/03 09:10:54;;;;;;;;;3.00;3.00;;;;;28.94;39.26;100843.88;4878772;29;45692;-59
2022/08/03 09:13:20;;;;;;;;;3.50;3.50;;;;;28.99;39.27;100842.84;4857945;29;45405;-59
2022/08/03 09:15:45;;;;;;;;;4.00;4.00;;;;;28.79;38.84;100811.28;4862243;29;45394;-56
2022/08/03 09:18:11;;;;;;;;;4.00;3.00;;;;;29.11;39.31;100834.50;4847424;29;45559;-55
2022/08/03 09:20:37;;;;;;;;;3.75;3.75;;;;;29.19;38.41;100830.81;4862016;29;46118;-61
2022/08/03 09:23:09;;;;;;;;;4.00;4.00;;;;;29.18;38.85;100823.53;4862315;29;45828;-58
2022/08/03 09:25:40;;;;;;;;;5.60;4.80;;;;;29.33;38.98;100836.28;4863041;29;45435;-59
2022/08/03 09:28:13;;;;;;;;;3.00;3.00;;;;;29.42;38.92;100833.41;4880002;29;45392;-60
2022/08/03 09:30:42;;;;;;;;;4.60;2.20;;;;;29.52;37.77;100832.25;4878703;29;45948;-57
2022/08/03 09:33:10;;;;;;;;;3.80;3.00;;;;;29.62;37.43;100831.84;4879494;29;45284;-58
2022/08/03 09:35:43;;;;;;;;;5.00;3.00;;;;;29.63;37.83;100832.69;4847506;29;45454;-59
2022/08/03 09:38:10;;;;;;;;;2.00;2.00;;;;;29.67;37.29;100830.00;4879132;29;45285;-59
2022/08/03 09:40:35;;;;;;;;;2.20;2.00;;;;;29.75;36.94;100832.78;4862301;29;46482;-59
2022/08/03 09:43:01;;;;;;;;;2.50;2.50;;;;;29.83;37.33;100825.41;4879339;29;45365;-56
2022/08/03 09:45:26;;;;;;;;;3.00;3.00;;;;;29.94;36.63;100825.84;4862698;29;45413;-60
2022/08/03 09:47:52;;;;;;;;;2.25;2.25;;;;;29.93;36.11;100824.16;4877441;29;45375;-63
2022/08/03 09:50:17;;;;;;;;;5.50;3.00;;;;;29.94;36.12;100822.19;4878829;29;46152;-62
2022/08/03 09:52:43;;;;;;;;;4.00;4.00;;;;;29.91;36.81;100803.91;4861576;29;45449;-62
2022/08/03 09:55:13;;;;;;;;;4.50;2.75;;;;;30.10;35.91;100819.59;4862501;29;45822;-53
2022/08/03 09:57:39;;;;;;;;;5.00;3.80;;;;;30.10;36.06;100816.78;4874567;29;45502;-62
2022/08/03 10:00:11;;;;;;;;;5.40;4.00;;;;;30.12;36.42;100814.41;4866003;29;45438;-60
2022/08/03 10:02:36;;;;;;;;;4.20;3.20;;;;;30.08;36.44;100804.97;4861798;29;45350;-60
2022/08/03 10:05:02;;;;;;;;;4.75;4.00;;;;;30.16;35.61;100819.03;4879248;29;45205;-60
2022/08/03 10:07:28;;;;;;;;;3.00;3.00;;;;;30.21;36.21;100811.53;4878888;29;45327;-59
2022/08/03 10:10:00;;;;;;;;;3.75;3.75;;;;;30.23;35.79;100821.34;4861521;29;45658;-59
2022/08/03 10:12:26;;;;;;;;;3.00;3.00;;;;;30.04;35.72;100782.19;4865500;29;46427;-59
2022/08/03 10:14:52;;;;;;;;;3.00;3.00;;;;;30.23;35.67;100803.50;4865925;29;45383;-57
2022/08/03 10:17:18;;;;;;;;;4.00;3.00;;;;;30.26;35.75;100797.19;4875826;29;45334;-58
2022/08/03 10:19:44;;;;;;;;;3.00;3.00;;;;;30.26;35.50;100788.69;4879537;29;45482;-59
2022/08/03 10:22:11;;;;;;;;;4.25;3.00;;;;;30.45;36.27;100795.84;4878713;29;45377;-59
2022/08/03 10:24:38;;;;;;;;;2.80;2.80;;;;;30.16;35.83;100741.84;4877885;29;45470;-58
2022/08/03 10:27:07;;;;;;;;;3.20;3.20;;;;;30.58;35.39;100794.72;4878707;29;45425;-56
2022/08/03 10:29:44;;;;;;;;;1.40;1.40;;;;;30.64;34.60;100789.66;4862437;29;46072;-53
2022/08/03 10:32:14;;;;;;;;;2.20;2.20;;;;;30.54;34.52;100774.78;4863067;29;45378;-54
2022/08/03 10:34:40;;;;;;;;;2.80;2.60;;;;;30.70;34.55;100786.31;4865685;29;45394;-55
2022/08/03 10:37:08;;;;;;;;;3.00;3.00;;;;;30.72;34.99;100776.63;4865669;29;45488;-59
2022/08/03 10:39:34;;;;;;;;;3.00;3.00;;;;;30.81;34.87;100780.19;4815897;29;45608;-57
2022/08/03 10:41:59;;;;;;;;;2.00;2.00;;;;;30.90;34.02;100775.25;4844769;29;45417;-62
2022/08/03 10:44:25;;;;;;;;;2.00;2.00;;;;;30.95;33.48;100769.34;4870049;29;45421;-58
2022/08/03 10:46:50;;;;;;;;;1.50;1.50;;;;;31.06;34.10;100778.22;4861609;29;45496;-57
2022/08/03 10:49:17;;;;;;;;;3.75;3.75;;;;;31.08;34.40;100766.53;4877840;29;45754;-56
2022/08/03 10:51:46;;;;;;;;;3.00;3.00;;;;;31.14;33.67;100767.97;4860835;29;45479;-58
2022/08/03 10:57:33;;;;;;;;;3.60;3.60;;;;;31.25;34.15;100774.00;4860332;29;45454;-59
2022/08/03 10:57:41;;;;;;;;;3.00;3.00;;;;;31.41;34.05;100770.50;4877767;29;45461;-61
2022/08/03 11:00:07;;;;;;;;;3.20;3.20;;;;;31.26;33.83;100743.66;4859143;29;46131;-59
2022/08/03 11:03:01;;;;;;;;;4.00;2.00;;;;;31.50;33.41;100763.53;4857751;29;45480;-57
2022/08/03 11:05:28;;;;;;;;;3.00;3.00;;;;;31.46;33.04;100756.91;4867724;29;45760;-59
2022/08/03 11:08:22;;;;;;;;;5.40;3.40;;;;;31.59;33.66;100765.41;4878109;29;45468;-59
2022/08/03 11:10:49;;;;;;;;;4.40;4.40;;;;;31.63;32.56;100760.66;4860909;29;45470;-56
2022/08/03 11:13:16;;;;;;;;;4.80;4.00;;;;;31.68;33.12;100756.78;4878003;29;45799;-57
2022/08/03 11:15:43;;;;;;;;;3.20;1.40;;;;;31.68;32.92;100757.56;4825860;29;46508;-56
2022/08/03 11:18:09;;;;;;;;;2.00;2.00;;;;;31.63;32.26;100744.47;4860141;29;45778;-55
2022/08/03 11:20:47;;;;;;;;;1.00;1.00;;;;;31.75;32.70;100746.44;4860615;29;46404;-58
2022/08/03 11:23:13;;;;;;;;;3.40;3.20;;;;;31.80;32.72;100738.88;4877803;29;45445;-58
2022/08/03 11:26:07;;;;;;;;;2.00;2.00;;;;;31.91;32.47;100743.72;4845000;29;45806;-57
2022/08/03 11:28:33;;;;;;;;;4.40;2.60;;;;;31.88;32.19;100726.59;4877415;29;45834;-57
2022/08/03 11:31:21;;;;;;;;;1.00;1.00;;;;;32.11;31.17;100737.41;4878704;29;45786;-55